sensor_id;sensor_type;location;lat;lon;timestamp;P1;durP1;ratioP1;P2;durP2;ratioP2
13588;SDS011;6865;52.552;13.434;2023-12-04T00:01:54;24.67;;;14.43;;
13588;SDS011;6865;52.552;13.434;2023-12-04T00:04:20;23.17;;;14.10;;
13588;SDS011;6865;52.552;13.434;2023-12-04T00:06:47;25.63;;;14.00;;
13588;SDS011;6865;52.552;13.434;2023-12-04T00:09:14;21.07;;;12.63;;
13588;SDS011;6865;52.552;13.434;2023-12-04T00:11:40;22.00;;;13.07;;
13588;SDS011;6865;52.552;13.434;2023-12-04T00:14:07;22.17;;;12.93;;
13588;SDS011;6865;52.552;13.434;2023-12-04T00:16:34;21.33;;;12.87;;
13588;SDS011;6865;52.552;13.434;2023-12-04T00:19:01;24.10;;;12.83;;
13588;SDS011;6865;52.552;13.434;2023-12-04T00:21:28;21.40;;;12.93;;
13588;SDS011;6865;52.552;13.434;2023-12-04T00:23:55;22.50;;;13.67;;
13588;SDS011;6865;52.552;13.434;2023-12-04T00:26:22;21.43;;;13.07;;
13588;SDS011;6865;52.552;13.434;2023-12-04T00:28:48;24.33;;;13.70;;
13588;SDS011;6865;52.552;13.434;2023-12-04T00:31:15;23.13;;;13.60;;
13588;SDS011;6865;52.552;13.434;2023-12-04T00:33:42;23.60;;;13.00;;
13588;SDS011;6865;52.552;13.434;2023-12-04T00:36:09;21.93;;;13.70;;
13588;SDS011;6865;52.552;13.434;2023-12-04T00:38:36;24.93;;;13.77;;
13588;SDS011;6865;52.552;13.434;2023-12-04T00:41:02;23.43;;;12.77;;
13588;SDS011;6865;52.552;13.434;2023-12-04T00:43:29;21.33;;;13.00;;
13588;SDS011;6865;52.552;13.434;2023-12-04T00:45:56;23.30;;;13.40;;
13588;SDS011;6865;52.552;13.434;2023-12-04T00:48:23;22.40;;;13.70;;
13588;SDS011;6865;52.552;13.434;2023-12-04T00:50:51;24.83;;;14.00;;
13588;SDS011;6865;52.552;13.434;2023-12-04T00:53:17;24.37;;;13.70;;
13588;SDS011;6865;52.552;13.434;2023-12-04T00:55:44;26.33;;;13.20;;
13588;SDS011;6865;52.552;13.434;2023-12-04T00:58:11;26.40;;;14.27;;
13588;SDS011;6865;52.552;13.434;2023-12-04T01:00:39;24.23;;;14.07;;
13588;SDS011;6865;52.552;13.434;2023-12-04T01:03:05;23.17;;;14.03;;
13588;SDS011;6865;52.552;13.434;2023-12-04T01:05:32;24.43;;;13.47;;
13588;SDS011;6865;52.552;13.434;2023-12-04T01:07:59;24.30;;;14.20;;
13588;SDS011;6865;52.552;13.434;2023-12-04T01:10:26;23.03;;;13.00;;
13588;SDS011;6865;52.552;13.434;2023-12-04T01:12:53;24.33;;;14.43;;
13588;SDS011;6865;52.552;13.434;2023-12-04T01:15:19;27.97;;;15.63;;
13588;SDS011;6865;52.552;13.434;2023-12-04T01:17:46;25.57;;;14.70;;
13588;SDS011;6865;52.552;13.434;2023-12-04T01:20:13;26.30;;;14.23;;
13588;SDS011;6865;52.552;13.434;2023-12-04T01:22:39;25.80;;;14.27;;
13588;SDS011;6865;52.552;13.434;2023-12-04T01:25:06;23.43;;;14.30;;
13588;SDS011;6865;52.552;13.434;2023-12-04T01:27:34;25.53;;;14.47;;
13588;SDS011;6865;52.552;13.434;2023-12-04T01:30:07;25.10;;;14.07;;
13588;SDS011;6865;52.552;13.434;2023-12-04T01:32:36;24.47;;;14.27;;
13588;SDS011;6865;52.552;13.434;2023-12-04T01:35:03;26.57;;;15.30;;
13588;SDS011;6865;52.552;13.434;2023-12-04T01:37:30;23.77;;;13.77;;
13588;SDS011;6865;52.552;13.434;2023-12-04T01:39:58;21.63;;;13.67;;
13588;SDS011;6865;52.552;13.434;2023-12-04T01:42:24;25.73;;;14.00;;
13588;SDS011;6865;52.552;13.434;2023-12-04T01:44:51;25.47;;;15.43;;
13588;SDS011;6865;52.552;13.434;2023-12-04T01:47:18;25.77;;;15.30;;
13588;SDS011;6865;52.552;13.434;2023-12-04T01:49:45;25.53;;;14.73;;
13588;SDS011;6865;52.552;13.434;2023-12-04T01:52:12;23.43;;;14.13;;
13588;SDS011;6865;52.552;13.434;2023-12-04T01:54:39;25.87;;;14.60;;
13588;SDS011;6865;52.552;13.434;2023-12-04T01:57:06;22.80;;;14.70;;
13588;SDS011;6865;52.552;13.434;2023-12-04T01:59:34;24.90;;;14.77;;
13588;SDS011;6865;52.552;13.434;2023-12-04T02:02:00;25.57;;;14.43;;
13588;SDS011;6865;52.552;13.434;2023-12-04T02:04:28;25.80;;;15.03;;
13588;SDS011;6865;52.552;13.434;2023-12-04T02:06:57;23.40;;;14.27;;
13588;SDS011;6865;52.552;13.434;2023-12-04T02:09:25;26.07;;;15.43;;
13588;SDS011;6865;52.552;13.434;2023-12-04T02:11:53;26.60;;;15.43;;
13588;SDS011;6865;52.552;13.434;2023-12-04T02:14:24;26.73;;;15.60;;
13588;SDS011;6865;52.552;13.434;2023-12-04T02:16:51;23.37;;;14.60;;
13588;SDS011;6865;52.552;13.434;2023-12-04T02:19:20;23.33;;;14.13;;
13588;SDS011;6865;52.552;13.434;2023-12-04T02:21:47;26.83;;;15.87;;
13588;SDS011;6865;52.552;13.434;2023-12-04T02:24:14;23.17;;;13.60;;
13588;SDS011;6865;52.552;13.434;2023-12-04T02:26:44;25.83;;;13.83;;
13588;SDS011;6865;52.552;13.434;2023-12-04T02:29:15;23.73;;;14.03;;
13588;SDS011;6865;52.552;13.434;2023-12-04T02:31:50;23.47;;;14.43;;
13588;SDS011;6865;52.552;13.434;2023-12-04T02:34:19;26.70;;;15.50;;
13588;SDS011;6865;52.552;13.434;2023-12-04T02:36:47;23.53;;;15.03;;
13588;SDS011;6865;52.552;13.434;2023-12-04T02:39:15;23.63;;;13.70;;
13588;SDS011;6865;52.552;13.434;2023-12-04T02:41:41;23.33;;;14.20;;
13588;SDS011;6865;52.552;13.434;2023-12-04T02:44:08;26.43;;;15.07;;
13588;SDS011;6865;52.552;13.434;2023-12-04T02:46:35;25.03;;;13.70;;
13588;SDS011;6865;52.552;13.434;2023-12-04T02:49:01;25.20;;;15.23;;
13588;SDS011;6865;52.552;13.434;2023-12-04T02:51:28;25.90;;;14.33;;
13588;SDS011;6865;52.552;13.434;2023-12-04T02:53:55;23.33;;;14.67;;
13588;SDS011;6865;52.552;13.434;2023-12-04T02:56:22;24.70;;;14.50;;
13588;SDS011;6865;52.552;13.434;2023-12-04T02:58:48;24.93;;;14.60;;
13588;SDS011;6865;52.552;13.434;2023-12-04T03:01:15;23.70;;;13.30;;
13588;SDS011;6865;52.552;13.434;2023-12-04T03:03:42;26.77;;;15.30;;
13588;SDS011;6865;52.552;13.434;2023-12-04T03:06:09;23.57;;;14.20;;
13588;SDS011;6865;52.552;13.434;2023-12-04T03:08:35;25.00;;;14.10;;
13588;SDS011;6865;52.552;13.434;2023-12-04T03:11:02;24.30;;;14.33;;
13588;SDS011;6865;52.552;13.434;2023-12-04T03:13:29;25.10;;;14.27;;
13588;SDS011;6865;52.552;13.434;2023-12-04T03:15:58;24.17;;;14.63;;
13588;SDS011;6865;52.552;13.434;2023-12-04T03:18:24;24.30;;;14.87;;
13588;SDS011;6865;52.552;13.434;2023-12-04T03:20:52;26.03;;;14.17;;
13588;SDS011;6865;52.552;13.434;2023-12-04T03:23:19;24.77;;;14.00;;
13588;SDS011;6865;52.552;13.434;2023-12-04T03:25:46;24.33;;;14.13;;
13588;SDS011;6865;52.552;13.434;2023-12-04T03:28:12;25.13;;;13.90;;
13588;SDS011;6865;52.552;13.434;2023-12-04T03:30:41;21.63;;;13.77;;
13588;SDS011;6865;52.552;13.434;2023-12-04T03:33:11;24.57;;;14.23;;
13588;SDS011;6865;52.552;13.434;2023-12-04T03:35:38;22.40;;;13.83;;
13588;SDS011;6865;52.552;13.434;2023-12-04T03:38:05;24.17;;;13.40;;
13588;SDS011;6865;52.552;13.434;2023-12-04T03:40:32;22.60;;;13.67;;
13588;SDS011;6865;52.552;13.434;2023-12-04T03:42:59;23.60;;;14.27;;
13588;SDS011;6865;52.552;13.434;2023-12-04T03:45:26;24.80;;;13.30;;
13588;SDS011;6865;52.552;13.434;2023-12-04T03:47:53;25.27;;;13.43;;
13588;SDS011;6865;52.552;13.434;2023-12-04T03:50:19;27.00;;;14.03;;
13588;SDS011;6865;52.552;13.434;2023-12-04T03:52:46;24.97;;;13.97;;
13588;SDS011;6865;52.552;13.434;2023-12-04T03:55:13;22.20;;;13.90;;
13588;SDS011;6865;52.552;13.434;2023-12-04T03:57:39;22.13;;;13.60;;
13588;SDS011;6865;52.552;13.434;2023-12-04T04:00:06;23.73;;;14.57;;
13588;SDS011;6865;52.552;13.434;2023-12-04T04:02:36;20.80;;;13.53;;
13588;SDS011;6865;52.552;13.434;2023-12-04T04:05:02;23.47;;;13.37;;
13588;SDS011;6865;52.552;13.434;2023-12-04T04:07:29;22.73;;;13.63;;
13588;SDS011;6865;52.552;13.434;2023-12-04T04:09:56;23.50;;;14.13;;
13588;SDS011;6865;52.552;13.434;2023-12-04T04:12:23;23.50;;;14.53;;
13588;SDS011;6865;52.552;13.434;2023-12-04T04:14:50;21.57;;;13.20;;
13588;SDS011;6865;52.552;13.434;2023-12-04T04:17:17;22.57;;;13.90;;
13588;SDS011;6865;52.552;13.434;2023-12-04T04:19:43;25.33;;;14.63;;
13588;SDS011;6865;52.552;13.434;2023-12-04T04:22:10;23.93;;;13.30;;
13588;SDS011;6865;52.552;13.434;2023-12-04T04:24:37;22.50;;;13.63;;
13588;SDS011;6865;52.552;13.434;2023-12-04T04:27:04;23.83;;;13.63;;
13588;SDS011;6865;52.552;13.434;2023-12-04T04:29:30;21.03;;;13.50;;
13588;SDS011;6865;52.552;13.434;2023-12-04T04:31:57;23.47;;;14.10;;
13588;SDS011;6865;52.552;13.434;2023-12-04T04:34:24;21.33;;;12.90;;
13588;SDS011;6865;52.552;13.434;2023-12-04T04:36:50;21.60;;;13.17;;
13588;SDS011;6865;52.552;13.434;2023-12-04T04:39:17;24.10;;;13.43;;
13588;SDS011;6865;52.552;13.434;2023-12-04T04:41:44;20.60;;;13.33;;
13588;SDS011;6865;52.552;13.434;2023-12-04T04:44:11;20.87;;;13.60;;
13588;SDS011;6865;52.552;13.434;2023-12-04T04:46:37;20.50;;;12.87;;
13588;SDS011;6865;52.552;13.434;2023-12-04T04:49:04;21.07;;;13.30;;
13588;SDS011;6865;52.552;13.434;2023-12-04T04:51:33;21.07;;;12.70;;
13588;SDS011;6865;52.552;13.434;2023-12-04T04:54:01;23.43;;;13.33;;
13588;SDS011;6865;52.552;13.434;2023-12-04T04:56:28;21.47;;;13.20;;
13588;SDS011;6865;52.552;13.434;2023-12-04T04:58:56;21.57;;;13.40;;
13588;SDS011;6865;52.552;13.434;2023-12-04T05:01:23;22.80;;;13.37;;
13588;SDS011;6865;52.552;13.434;2023-12-04T05:03:50;20.67;;;12.50;;
13588;SDS011;6865;52.552;13.434;2023-12-04T05:06:17;18.57;;;12.33;;
13588;SDS011;6865;52.552;13.434;2023-12-04T05:08:44;19.53;;;12.43;;
13588;SDS011;6865;52.552;13.434;2023-12-04T05:11:14;21.90;;;12.03;;
13588;SDS011;6865;52.552;13.434;2023-12-04T05:13:41;20.13;;;13.03;;
13588;SDS011;6865;52.552;13.434;2023-12-04T05:16:08;22.60;;;13.07;;
13588;SDS011;6865;52.552;13.434;2023-12-04T05:18:35;19.20;;;11.83;;
13588;SDS011;6865;52.552;13.434;2023-12-04T05:21:02;19.97;;;12.60;;
13588;SDS011;6865;52.552;13.434;2023-12-04T05:23:29;21.90;;;12.50;;
13588;SDS011;6865;52.552;13.434;2023-12-04T05:25:55;19.27;;;11.33;;
13588;SDS011;6865;52.552;13.434;2023-12-04T05:28:22;20.77;;;12.60;;
13588;SDS011;6865;52.552;13.434;2023-12-04T05:30:49;20.73;;;12.00;;
13588;SDS011;6865;52.552;13.434;2023-12-04T05:33:15;20.60;;;12.93;;
13588;SDS011;6865;52.552;13.434;2023-12-04T05:35:42;19.90;;;11.37;;
13588;SDS011;6865;52.552;13.434;2023-12-04T05:38:09;19.43;;;11.97;;
13588;SDS011;6865;52.552;13.434;2023-12-04T05:40:35;21.87;;;13.17;;
13588;SDS011;6865;52.552;13.434;2023-12-04T05:43:02;19.53;;;11.50;;
13588;SDS011;6865;52.552;13.434;2023-12-04T05:45:29;21.93;;;12.57;;
13588;SDS011;6865;52.552;13.434;2023-12-04T05:47:56;21.27;;;12.50;;
13588;SDS011;6865;52.552;13.434;2023-12-04T05:50:22;20.37;;;12.60;;
13588;SDS011;6865;52.552;13.434;2023-12-04T05:52:50;19.03;;;12.00;;
13588;SDS011;6865;52.552;13.434;2023-12-04T05:55:16;18.97;;;12.50;;
13588;SDS011;6865;52.552;13.434;2023-12-04T05:57:43;21.30;;;12.57;;
13588;SDS011;6865;52.552;13.434;2023-12-04T06:00:10;18.97;;;11.87;;
13588;SDS011;6865;52.552;13.434;2023-12-04T06:02:39;20.23;;;11.90;;
13588;SDS011;6865;52.552;13.434;2023-12-04T06:05:06;19.10;;;11.70;;
13588;SDS011;6865;52.552;13.434;2023-12-04T06:07:34;21.27;;;12.53;;
13588;SDS011;6865;52.552;13.434;2023-12-04T06:10:04;19.77;;;12.27;;
13588;SDS011;6865;52.552;13.434;2023-12-04T06:12:32;19.33;;;12.13;;
13588;SDS011;6865;52.552;13.434;2023-12-04T06:14:59;19.43;;;12.50;;
13588;SDS011;6865;52.552;13.434;2023-12-04T06:17:26;19.93;;;12.60;;
13588;SDS011;6865;52.552;13.434;2023-12-04T06:19:53;21.43;;;12.80;;
13588;SDS011;6865;52.552;13.434;2023-12-04T06:22:20;21.23;;;12.70;;
13588;SDS011;6865;52.552;13.434;2023-12-04T06:24:48;19.53;;;12.20;;
13588;SDS011;6865;52.552;13.434;2023-12-04T06:27:16;22.80;;;11.73;;
13588;SDS011;6865;52.552;13.434;2023-12-04T06:29:47;19.07;;;11.67;;
13588;SDS011;6865;52.552;13.434;2023-12-04T06:32:18;21.37;;;12.03;;
13588;SDS011;6865;52.552;13.434;2023-12-04T06:34:45;19.10;;;12.20;;
13588;SDS011;6865;52.552;13.434;2023-12-04T06:37:13;19.93;;;11.93;;
13588;SDS011;6865;52.552;13.434;2023-12-04T06:39:40;20.13;;;13.20;;
13588;SDS011;6865;52.552;13.434;2023-12-04T06:42:07;20.27;;;11.77;;
13588;SDS011;6865;52.552;13.434;2023-12-04T06:44:36;20.17;;;12.27;;
13588;SDS011;6865;52.552;13.434;2023-12-04T06:47:03;19.17;;;11.93;;
13588;SDS011;6865;52.552;13.434;2023-12-04T06:49:31;20.53;;;12.13;;
13588;SDS011;6865;52.552;13.434;2023-12-04T06:51:59;19.90;;;11.87;;
13588;SDS011;6865;52.552;13.434;2023-12-04T06:54:26;16.63;;;11.40;;
13588;SDS011;6865;52.552;13.434;2023-12-04T06:56:53;19.83;;;12.00;;
13588;SDS011;6865;52.552;13.434;2023-12-04T06:59:20;20.17;;;12.13;;
13588;SDS011;6865;52.552;13.434;2023-12-04T07:01:47;20.13;;;12.23;;
13588;SDS011;6865;52.552;13.434;2023-12-04T07:04:14;19.77;;;13.00;;
13588;SDS011;6865;52.552;13.434;2023-12-04T07:06:47;20.43;;;12.17;;
13588;SDS011;6865;52.552;13.434;2023-12-04T07:09:14;19.93;;;11.27;;
13588;SDS011;6865;52.552;13.434;2023-12-04T07:11:43;20.23;;;12.23;;
13588;SDS011;6865;52.552;13.434;2023-12-04T07:14:10;23.77;;;15.07;;
13588;SDS011;6865;52.552;13.434;2023-12-04T07:16:40;27.17;;;16.63;;
13588;SDS011;6865;52.552;13.434;2023-12-04T07:19:08;31.73;;;19.03;;
13588;SDS011;6865;52.552;13.434;2023-12-04T07:21:36;27.77;;;17.00;;
13588;SDS011;6865;52.552;13.434;2023-12-04T07:24:04;21.37;;;13.13;;
13588;SDS011;6865;52.552;13.434;2023-12-04T07:26:31;18.63;;;12.57;;
13588;SDS011;6865;52.552;13.434;2023-12-04T07:28:58;16.40;;;10.93;;
13588;SDS011;6865;52.552;13.434;2023-12-04T07:31:25;17.73;;;11.23;;
13588;SDS011;6865;52.552;13.434;2023-12-04T07:33:55;18.13;;;11.40;;
13588;SDS011;6865;52.552;13.434;2023-12-04T07:36:22;16.50;;;11.17;;
13588;SDS011;6865;52.552;13.434;2023-12-04T07:38:51;16.47;;;11.40;;
13588;SDS011;6865;52.552;13.434;2023-12-04T07:41:20;20.93;;;10.80;;
13588;SDS011;6865;52.552;13.434;2023-12-04T07:43:48;17.70;;;11.53;;
13588;SDS011;6865;52.552;13.434;2023-12-04T07:46:14;22.57;;;11.23;;
13588;SDS011;6865;52.552;13.434;2023-12-04T07:48:41;20.07;;;11.33;;
13588;SDS011;6865;52.552;13.434;2023-12-04T07:51:10;17.57;;;11.13;;
13588;SDS011;6865;52.552;13.434;2023-12-04T07:53:37;21.77;;;11.73;;
13588;SDS011;6865;52.552;13.434;2023-12-04T07:56:03;20.87;;;11.20;;
13588;SDS011;6865;52.552;13.434;2023-12-04T07:58:31;20.00;;;10.63;;
13588;SDS011;6865;52.552;13.434;2023-12-04T08:00:58;17.93;;;11.50;;
13588;SDS011;6865;52.552;13.434;2023-12-04T08:03:25;18.20;;;10.43;;
13588;SDS011;6865;52.552;13.434;2023-12-04T08:05:53;17.53;;;10.87;;
13588;SDS011;6865;52.552;13.434;2023-12-04T08:08:20;17.57;;;10.90;;
13588;SDS011;6865;52.552;13.434;2023-12-04T08:10:47;16.90;;;10.93;;
13588;SDS011;6865;52.552;13.434;2023-12-04T08:13:14;18.47;;;10.70;;
13588;SDS011;6865;52.552;13.434;2023-12-04T08:15:42;24.50;;;14.83;;
13588;SDS011;6865;52.552;13.434;2023-12-04T08:18:10;17.53;;;11.27;;
13588;SDS011;6865;52.552;13.434;2023-12-04T08:20:37;16.33;;;10.70;;
13588;SDS011;6865;52.552;13.434;2023-12-04T08:23:06;17.30;;;10.97;;
13588;SDS011;6865;52.552;13.434;2023-12-04T08:25:34;16.67;;;11.20;;
13588;SDS011;6865;52.552;13.434;2023-12-04T08:28:02;17.27;;;11.07;;
13588;SDS011;6865;52.552;13.434;2023-12-04T08:30:29;18.17;;;11.77;;
13588;SDS011;6865;52.552;13.434;2023-12-04T08:32:56;17.33;;;11.00;;
13588;SDS011;6865;52.552;13.434;2023-12-04T08:35:23;17.57;;;11.33;;
13588;SDS011;6865;52.552;13.434;2023-12-04T08:37:50;17.90;;;10.90;;
13588;SDS011;6865;52.552;13.434;2023-12-04T08:40:17;17.43;;;11.33;;
13588;SDS011;6865;52.552;13.434;2023-12-04T08:42:44;18.50;;;11.60;;
13588;SDS011;6865;52.552;13.434;2023-12-04T08:45:11;19.00;;;11.60;;
13588;SDS011;6865;52.552;13.434;2023-12-04T08:47:38;17.43;;;10.63;;
13588;SDS011;6865;52.552;13.434;2023-12-04T08:50:05;20.20;;;12.07;;
13588;SDS011;6865;52.552;13.434;2023-12-04T08:52:33;19.20;;;12.37;;
13588;SDS011;6865;52.552;13.434;2023-12-04T08:55:00;17.97;;;10.97;;
13588;SDS011;6865;52.552;13.434;2023-12-04T08:57:28;22.67;;;12.27;;
13588;SDS011;6865;52.552;13.434;2023-12-04T08:59:54;22.93;;;12.93;;
13588;SDS011;6865;52.552;13.434;2023-12-04T09:02:21;26.23;;;13.77;;
13588;SDS011;6865;52.552;13.434;2023-12-04T09:04:48;23.97;;;14.00;;
13588;SDS011;6865;52.552;13.434;2023-12-04T09:07:15;26.13;;;14.30;;
13588;SDS011;6865;52.552;13.434;2023-12-04T09:09:44;17.80;;;11.67;;
13588;SDS011;6865;52.552;13.434;2023-12-04T09:12:12;15.90;;;10.73;;
13588;SDS011;6865;52.552;13.434;2023-12-04T09:14:39;16.77;;;11.00;;
13588;SDS011;6865;52.552;13.434;2023-12-04T09:17:06;17.10;;;11.53;;
13588;SDS011;6865;52.552;13.434;2023-12-04T09:19:34;16.63;;;10.63;;
13588;SDS011;6865;52.552;13.434;2023-12-04T09:22:01;18.33;;;10.60;;
13588;SDS011;6865;52.552;13.434;2023-12-04T09:24:42;16.70;;;10.53;;
13588;SDS011;6865;52.552;13.434;2023-12-04T09:27:08;17.97;;;11.30;;
13588;SDS011;6865;52.552;13.434;2023-12-04T09:29:35;16.87;;;10.97;;
13588;SDS011;6865;52.552;13.434;2023-12-04T09:32:02;17.80;;;11.17;;
13588;SDS011;6865;52.552;13.434;2023-12-04T09:34:29;17.27;;;10.83;;
13588;SDS011;6865;52.552;13.434;2023-12-04T09:36:55;16.07;;;10.57;;
13588;SDS011;6865;52.552;13.434;2023-12-04T09:39:34;18.83;;;10.87;;
13588;SDS011;6865;52.552;13.434;2023-12-04T09:42:01;15.00;;;9.97;;
13588;SDS011;6865;52.552;13.434;2023-12-04T09:44:29;17.50;;;10.27;;
13588;SDS011;6865;52.552;13.434;2023-12-04T09:46:57;15.63;;;10.20;;
13588;SDS011;6865;52.552;13.434;2023-12-04T09:49:26;15.37;;;10.30;;
13588;SDS011;6865;52.552;13.434;2023-12-04T09:51:59;15.53;;;10.00;;
13588;SDS011;6865;52.552;13.434;2023-12-04T09:54:27;16.83;;;10.53;;
13588;SDS011;6865;52.552;13.434;2023-12-04T09:56:55;15.97;;;10.27;;
13588;SDS011;6865;52.552;13.434;2023-12-04T09:59:23;16.63;;;10.43;;
13588;SDS011;6865;52.552;13.434;2023-12-04T10:01:51;18.70;;;12.60;;
13588;SDS011;6865;52.552;13.434;2023-12-04T10:04:19;16.83;;;11.13;;
13588;SDS011;6865;52.552;13.434;2023-12-04T10:06:48;16.80;;;10.63;;
13588;SDS011;6865;52.552;13.434;2023-12-04T10:09:16;18.27;;;10.70;;
13588;SDS011;6865;52.552;13.434;2023-12-04T10:11:45;15.40;;;10.23;;
13588;SDS011;6865;52.552;13.434;2023-12-04T10:14:15;14.40;;;9.37;;
13588;SDS011;6865;52.552;13.434;2023-12-04T10:16:43;13.63;;;9.17;;
13588;SDS011;6865;52.552;13.434;2023-12-04T10:19:14;13.73;;;8.87;;
13588;SDS011;6865;52.552;13.434;2023-12-04T10:21:45;13.30;;;9.30;;
13588;SDS011;6865;52.552;13.434;2023-12-04T10:24:27;16.17;;;9.83;;
13588;SDS011;6865;52.552;13.434;2023-12-04T10:27:03;15.17;;;11.03;;
13588;SDS011;6865;52.552;13.434;2023-12-04T10:29:39;12.90;;;8.27;;
13588;SDS011;6865;52.552;13.434;2023-12-04T10:32:11;14.47;;;8.60;;
13588;SDS011;6865;52.552;13.434;2023-12-04T10:34:40;12.63;;;8.33;;
13588;SDS011;6865;52.552;13.434;2023-12-04T10:37:09;17.00;;;9.00;;
13588;SDS011;6865;52.552;13.434;2023-12-04T10:39:47;13.23;;;8.73;;
13588;SDS011;6865;52.552;13.434;2023-12-04T10:42:39;13.33;;;8.73;;
13588;SDS011;6865;52.552;13.434;2023-12-04T10:45:02;12.90;;;8.47;;
13588;SDS011;6865;52.552;13.434;2023-12-04T10:47:32;13.27;;;8.70;;
13588;SDS011;6865;52.552;13.434;2023-12-04T10:50:01;13.97;;;9.27;;
13588;SDS011;6865;52.552;13.434;2023-12-04T10:52:29;13.53;;;8.83;;
13588;SDS011;6865;52.552;13.434;2023-12-04T10:54:57;12.77;;;8.60;;
13588;SDS011;6865;52.552;13.434;2023-12-04T10:57:27;13.17;;;8.63;;
13588;SDS011;6865;52.552;13.434;2023-12-04T11:00:04;11.00;;;8.53;;
13588;SDS011;6865;52.552;13.434;2023-12-04T11:02:33;14.57;;;8.50;;
13588;SDS011;6865;52.552;13.434;2023-12-04T11:05:08;13.03;;;8.53;;
13588;SDS011;6865;52.552;13.434;2023-12-04T11:07:41;13.53;;;8.80;;
13588;SDS011;6865;52.552;13.434;2023-12-04T11:10:35;13.20;;;8.30;;
13588;SDS011;6865;52.552;13.434;2023-12-04T11:13:11;12.40;;;8.87;;
13588;SDS011;6865;52.552;13.434;2023-12-04T11:15:43;11.87;;;8.30;;
13588;SDS011;6865;52.552;13.434;2023-12-04T11:18:16;13.60;;;8.57;;
13588;SDS011;6865;52.552;13.434;2023-12-04T11:20:54;12.50;;;8.30;;
13588;SDS011;6865;52.552;13.434;2023-12-04T11:23:28;12.60;;;8.57;;
13588;SDS011;6865;52.552;13.434;2023-12-04T11:25:55;11.83;;;7.93;;
13588;SDS011;6865;52.552;13.434;2023-12-04T11:28:22;11.57;;;7.93;;
13588;SDS011;6865;52.552;13.434;2023-12-04T11:30:51;13.97;;;8.10;;
13588;SDS011;6865;52.552;13.434;2023-12-04T11:33:18;14.40;;;7.93;;
13588;SDS011;6865;52.552;13.434;2023-12-04T11:35:46;12.40;;;8.13;;
13588;SDS011;6865;52.552;13.434;2023-12-04T11:38:13;10.63;;;7.80;;
13588;SDS011;6865;52.552;13.434;2023-12-04T11:40:41;13.00;;;7.50;;
13588;SDS011;6865;52.552;13.434;2023-12-04T11:43:27;11.50;;;7.87;;
13588;SDS011;6865;52.552;13.434;2023-12-04T11:46:08;11.87;;;8.13;;
13588;SDS011;6865;52.552;13.434;2023-12-04T11:48:39;12.00;;;7.87;;
13588;SDS011;6865;52.552;13.434;2023-12-04T11:51:06;10.43;;;6.90;;
13588;SDS011;6865;52.552;13.434;2023-12-04T11:53:40;12.47;;;7.73;;
13588;SDS011;6865;52.552;13.434;2023-12-04T11:56:10;11.03;;;7.60;;
13588;SDS011;6865;52.552;13.434;2023-12-04T11:58:44;11.17;;;7.33;;
13588;SDS011;6865;52.552;13.434;2023-12-04T12:01:11;12.60;;;7.80;;
13588;SDS011;6865;52.552;13.434;2023-12-04T12:03:38;12.20;;;8.00;;
13588;SDS011;6865;52.552;13.434;2023-12-04T12:06:06;12.53;;;8.30;;
13588;SDS011;6865;52.552;13.434;2023-12-04T12:08:33;17.33;;;10.03;;
13588;SDS011;6865;52.552;13.434;2023-12-04T12:11:00;13.23;;;9.40;;
13588;SDS011;6865;52.552;13.434;2023-12-04T12:13:28;12.00;;;8.33;;
13588;SDS011;6865;52.552;13.434;2023-12-04T12:15:55;12.73;;;8.40;;
13588;SDS011;6865;52.552;13.434;2023-12-04T12:18:24;11.40;;;7.67;;
13588;SDS011;6865;52.552;13.434;2023-12-04T12:20:53;11.23;;;7.83;;
13588;SDS011;6865;52.552;13.434;2023-12-04T12:23:21;12.27;;;7.23;;
13588;SDS011;6865;52.552;13.434;2023-12-04T12:25:49;10.33;;;7.30;;
13588;SDS011;6865;52.552;13.434;2023-12-04T12:28:17;11.07;;;7.77;;
13588;SDS011;6865;52.552;13.434;2023-12-04T12:30:44;15.63;;;8.63;;
13588;SDS011;6865;52.552;13.434;2023-12-04T12:33:15;12.07;;;7.67;;
13588;SDS011;6865;52.552;13.434;2023-12-04T12:35:42;10.50;;;7.23;;
13588;SDS011;6865;52.552;13.434;2023-12-04T12:38:23;10.23;;;7.30;;
13588;SDS011;6865;52.552;13.434;2023-12-04T12:40:49;12.47;;;7.77;;
13588;SDS011;6865;52.552;13.434;2023-12-04T12:43:16;11.30;;;7.83;;
13588;SDS011;6865;52.552;13.434;2023-12-04T12:45:48;12.87;;;7.67;;
13588;SDS011;6865;52.552;13.434;2023-12-04T12:48:16;14.37;;;8.10;;
13588;SDS011;6865;52.552;13.434;2023-12-04T12:50:43;11.43;;;7.60;;
13588;SDS011;6865;52.552;13.434;2023-12-04T12:53:11;11.20;;;7.60;;
13588;SDS011;6865;52.552;13.434;2023-12-04T12:55:41;12.83;;;7.57;;
13588;SDS011;6865;52.552;13.434;2023-12-04T12:58:10;12.17;;;7.60;;
13588;SDS011;6865;52.552;13.434;2023-12-04T13:00:39;10.97;;;7.90;;
13588;SDS011;6865;52.552;13.434;2023-12-04T13:03:16;11.00;;;7.67;;
13588;SDS011;6865;52.552;13.434;2023-12-04T13:05:43;11.50;;;7.77;;
13588;SDS011;6865;52.552;13.434;2023-12-04T13:08:11;12.37;;;8.40;;
13588;SDS011;6865;52.552;13.434;2023-12-04T13:10:38;11.27;;;7.43;;
13588;SDS011;6865;52.552;13.434;2023-12-04T13:13:09;12.13;;;7.57;;
13588;SDS011;6865;52.552;13.434;2023-12-04T13:15:40;11.40;;;7.83;;
13588;SDS011;6865;52.552;13.434;2023-12-04T13:18:08;12.77;;;8.63;;
13588;SDS011;6865;52.552;13.434;2023-12-04T13:20:35;13.57;;;8.90;;
13588;SDS011;6865;52.552;13.434;2023-12-04T13:23:02;29.27;;;20.53;;
13588;SDS011;6865;52.552;13.434;2023-12-04T13:25:28;16.10;;;11.37;;
13588;SDS011;6865;52.552;13.434;2023-12-04T13:27:56;13.77;;;9.57;;
13588;SDS011;6865;52.552;13.434;2023-12-04T13:30:23;12.63;;;9.13;;
13588;SDS011;6865;52.552;13.434;2023-12-04T13:32:50;10.67;;;7.67;;
13588;SDS011;6865;52.552;13.434;2023-12-04T13:35:17;12.33;;;8.83;;
13588;SDS011;6865;52.552;13.434;2023-12-04T13:37:44;12.87;;;7.63;;
13588;SDS011;6865;52.552;13.434;2023-12-04T13:40:11;10.83;;;7.33;;
13588;SDS011;6865;52.552;13.434;2023-12-04T13:42:42;12.60;;;7.60;;
13588;SDS011;6865;52.552;13.434;2023-12-04T13:45:27;10.10;;;7.27;;
13588;SDS011;6865;52.552;13.434;2023-12-04T13:47:54;12.07;;;7.90;;
13588;SDS011;6865;52.552;13.434;2023-12-04T13:50:21;11.23;;;7.73;;
13588;SDS011;6865;52.552;13.434;2023-12-04T13:52:48;9.87;;;7.83;;
13588;SDS011;6865;52.552;13.434;2023-12-04T13:55:22;11.07;;;8.07;;
13588;SDS011;6865;52.552;13.434;2023-12-04T13:58:22;11.00;;;7.60;;
13588;SDS011;6865;52.552;13.434;2023-12-04T14:01:06;12.77;;;8.47;;
13588;SDS011;6865;52.552;13.434;2023-12-04T14:03:41;19.33;;;10.23;;
13588;SDS011;6865;52.552;13.434;2023-12-04T14:06:10;13.87;;;9.60;;
13588;SDS011;6865;52.552;13.434;2023-12-04T14:08:37;11.23;;;7.80;;
13588;SDS011;6865;52.552;13.434;2023-12-04T14:11:04;14.93;;;9.60;;
13588;SDS011;6865;52.552;13.434;2023-12-04T14:13:32;13.00;;;9.27;;
13588;SDS011;6865;52.552;13.434;2023-12-04T14:15:59;15.17;;;9.33;;
13588;SDS011;6865;52.552;13.434;2023-12-04T14:18:27;23.20;;;14.20;;
13588;SDS011;6865;52.552;13.434;2023-12-04T14:20:56;15.43;;;11.37;;
13588;SDS011;6865;52.552;13.434;2023-12-04T14:23:23;15.80;;;11.27;;
13588;SDS011;6865;52.552;13.434;2023-12-04T14:25:50;18.23;;;12.83;;
13588;SDS011;6865;52.552;13.434;2023-12-04T14:28:17;20.43;;;12.80;;
13588;SDS011;6865;52.552;13.434;2023-12-04T14:30:54;28.70;;;19.23;;
13588;SDS011;6865;52.552;13.434;2023-12-04T14:33:21;20.43;;;14.27;;